createdAt,value
2023-06-10T00:00:48.730Z,95770.97
2023-06-10T00:03:16.824Z,95772.09
2023-06-10T00:05:44.650Z,95768.50
2023-06-10T00:08:12.837Z,95770.72
2023-06-10T00:10:40.581Z,95771.03
2023-06-10T00:13:09.989Z,95769.81
2023-06-10T00:15:37.793Z,95782.66
2023-06-10T00:18:07.171Z,95778.31
2023-06-10T00:20:38.853Z,95780.22
2023-06-10T00:23:09.394Z,95775.78
2023-06-10T00:25:37.254Z,95777.31
2023-06-10T00:28:05.185Z,95781.91
2023-06-10T00:30:33.082Z,95782.25
2023-06-10T00:33:01.203Z,95779.44
2023-06-10T00:35:30.506Z,95775.13
2023-06-10T00:37:58.273Z,95781.75
2023-06-10T00:40:26.109Z,95777.44
2023-06-10T00:42:53.900Z,95775.47
2023-06-10T00:45:23.542Z,95776.25
2023-06-10T00:47:51.347Z,95773.91
2023-06-10T00:50:19.416Z,95780.16
2023-06-10T00:52:49.548Z,95777.44
2023-06-10T00:55:19.003Z,95778.97
2023-06-10T00:57:49.350Z,95770.72
2023-06-10T01:00:17.879Z,95774.63
2023-06-10T01:02:45.706Z,95772.13
2023-06-10T01:05:13.783Z,95772.94
2023-06-10T01:07:49.203Z,95766.69
2023-06-10T01:10:25.865Z,95765.72
2023-06-10T01:13:03.642Z,95771.56
2023-06-10T01:15:32.790Z,95770.34
2023-06-10T01:18:03.058Z,95766.81
2023-06-10T01:20:33.595Z,95765.63
2023-06-10T01:23:04.176Z,95777.31
2023-06-10T01:25:34.139Z,95767.31
2023-06-10T01:28:07.650Z,95774.22
2023-06-10T01:30:46.751Z,95769.91
2023-06-10T01:33:19.314Z,95774.19
2023-06-10T01:35:48.986Z,95781.56
2023-06-10T01:38:21.309Z,95774.13
2023-06-10T01:40:51.445Z,95778.00
2023-06-10T01:43:19.217Z,95783.03
2023-06-10T01:45:47.489Z,95789.28
2023-06-10T01:48:15.306Z,95790.81
2023-06-10T01:50:44.950Z,95792.78
2023-06-10T01:53:12.818Z,95782.63
2023-06-10T01:55:42.018Z,95789.22
2023-06-10T01:58:09.794Z,95790.38
2023-06-10T02:00:37.547Z,95792.25
2023-06-10T02:03:05.535Z,95790.25
2023-06-10T02:05:33.378Z,95791.75
2023-06-10T02:08:01.737Z,95792.84
2023-06-10T02:10:29.574Z,95792.78
2023-06-10T02:13:00.462Z,95788.41
2023-06-10T02:15:28.242Z,95795.41
2023-06-10T02:17:56.966Z,95802.38
2023-06-10T02:20:24.809Z,95799.59
2023-06-10T02:22:52.804Z,95805.41
2023-06-10T02:25:20.632Z,95804.13
2023-06-10T02:27:48.415Z,95802.97
2023-06-10T02:30:17.707Z,95796.34
2023-06-10T02:32:48.933Z,95788.53
2023-06-10T02:35:18.527Z,95806.00
2023-06-10T02:37:46.657Z,95799.69
2023-06-10T02:40:14.540Z,95798.09
2023-06-10T02:42:42.339Z,95799.97
2023-06-10T02:45:10.958Z,95801.50
2023-06-10T02:47:43.989Z,95803.78
2023-06-10T02:50:13.529Z,95798.25
2023-06-10T02:52:51.486Z,95804.88
2023-06-10T02:55:19.562Z,95801.34
2023-06-10T02:57:53.389Z,95803.31
2023-06-10T03:00:22.621Z,95807.19
2023-06-10T03:02:52.374Z,95810.25
2023-06-10T03:05:25.130Z,95808.25
2023-06-10T03:07:55.155Z,95807.03
2023-06-10T03:10:23.690Z,95807.81
2023-06-10T03:12:51.550Z,95813.34
2023-06-10T03:15:21.838Z,95812.97
2023-06-10T03:17:50.105Z,95816.50
2023-06-10T03:20:19.337Z,95820.38
2023-06-10T03:22:48.174Z,95818.72
2023-06-10T03:25:15.964Z,95821.03
2023-06-10T03:27:47.718Z,95821.84
2023-06-10T03:30:16.197Z,95823.41
2023-06-10T03:32:45.299Z,95830.09
2023-06-10T03:35:16.605Z,95833.22
2023-06-10T03:37:46.400Z,95835.19
2023-06-10T03:40:14.327Z,95835.09
2023-06-10T03:42:46.032Z,95834.59
2023-06-10T03:45:16.147Z,95839.66
2023-06-10T03:47:44.433Z,95834.09
2023-06-10T03:50:15.223Z,95831.00
2023-06-10T03:52:47.975Z,95830.31
2023-06-10T03:55:18.011Z,95840.94
2023-06-10T03:57:47.190Z,95840.63
2023-06-10T04:00:16.416Z,95846.88
2023-06-10T04:02:47.542Z,95840.72
2023-06-10T04:05:23.637Z,95848.53
2023-06-10T04:07:52.851Z,95843.50
2023-06-10T04:10:21.461Z,95851.03
2023-06-10T04:12:49.294Z,95849.59
2023-06-10T04:15:17.218Z,95859.88
2023-06-10T04:17:45.297Z,95851.31
2023-06-10T04:20:14.469Z,95860.78
2023-06-10T04:22:46.017Z,95858.91
2023-06-10T04:25:15.384Z,95857.03
2023-06-10T04:27:43.893Z,95857.97
2023-06-10T04:30:13.524Z,95852.97
2023-06-10T04:32:42.248Z,95860.53
2023-06-10T04:35:16.090Z,95857.09
2023-06-10T04:37:44.472Z,95862.31
2023-06-10T04:40:13.267Z,95865.16
2023-06-10T04:42:43.168Z,95868.00
2023-06-10T04:45:12.005Z,95863.03
2023-06-10T04:47:41.133Z,95862.00
2023-06-10T04:50:09.842Z,95862.84
2023-06-10T04:52:37.669Z,95876.19
2023-06-10T04:55:07.244Z,95874.25
2023-06-10T04:57:35.402Z,95878.22
2023-06-10T05:00:07.060Z,95878.25
2023-06-10T05:02:34.840Z,95876.34
2023-06-10T05:05:02.664Z,95880.31
2023-06-10T05:07:30.494Z,95881.50
2023-06-10T05:09:58.226Z,95878.53
2023-06-10T05:12:26.056Z,95879.38
2023-06-10T05:14:53.850Z,95878.25
2023-06-10T05:17:23.017Z,95886.53
2023-06-10T05:19:51.009Z,95889.34
2023-06-10T05:22:19.084Z,95884.72
2023-06-10T05:24:46.938Z,95880.97
2023-06-10T05:27:14.716Z,95887.94
2023-06-10T05:29:42.482Z,95883.75
2023-06-10T05:32:11.018Z,95888.16
2023-06-10T05:34:40.183Z,95883.09
2023-06-10T05:37:07.984Z,95893.72
2023-06-10T05:39:38.540Z,95897.75
2023-06-10T05:42:07.665Z,95900.56
2023-06-10T05:44:36.042Z,95898.28
2023-06-10T05:47:03.943Z,95906.53
2023-06-10T05:49:31.943Z,95905.81
2023-06-10T05:52:01.238Z,95908.22
2023-06-10T05:54:30.281Z,95893.38
2023-06-10T05:56:58.655Z,95893.47
2023-06-10T05:59:26.472Z,95893.56
2023-06-10T06:01:54.363Z,95892.81
2023-06-10T06:04:22.222Z,95889.00
2023-06-10T06:06:50.142Z,95893.34
2023-06-10T06:09:19.298Z,95896.91
2023-06-10T06:11:47.192Z,95884.44
2023-06-10T06:14:15.032Z,95896.25
2023-06-10T06:16:42.814Z,95892.34
2023-06-10T06:19:12.194Z,95898.69
2023-06-10T06:21:40.007Z,95901.84
2023-06-10T06:24:08.828Z,95894.88
2023-06-10T06:26:38.073Z,95896.50
2023-06-10T06:29:05.882Z,95889.53
2023-06-10T06:31:33.734Z,95887.25
2023-06-10T06:34:01.648Z,95893.56
2023-06-10T06:36:29.471Z,95901.81
2023-06-10T06:38:58.374Z,95890.16
2023-06-10T06:41:26.723Z,95898.81
2023-06-10T06:43:56.016Z,95903.97
2023-06-10T06:46:31.832Z,95899.66
2023-06-10T06:48:59.780Z,95911.44
2023-06-10T06:51:27.633Z,95917.78
2023-06-10T06:53:59.728Z,95904.88
2023-06-10T06:56:28.164Z,95911.25
2023-06-10T06:58:58.322Z,95915.63
2023-06-10T07:01:26.395Z,95909.00
2023-06-10T07:03:54.318Z,95914.53
2023-06-10T07:06:22.149Z,95911.81
2023-06-10T07:08:52.631Z,95916.97
2023-06-10T07:11:20.471Z,95920.13
2023-06-10T07:13:48.445Z,95920.56
2023-06-10T07:16:17.590Z,95926.47
2023-06-10T07:18:45.593Z,95920.63
2023-06-10T07:21:13.876Z,95927.75
2023-06-10T07:23:44.316Z,95925.03
2023-06-10T07:26:12.178Z,95923.06
2023-06-10T07:28:40.125Z,95930.13
2023-06-10T07:31:09.176Z,95927.44
2023-06-10T07:33:40.126Z,95925.88
2023-06-10T07:36:08.352Z,95922.75
2023-06-10T07:38:36.359Z,95920.41
2023-06-10T07:41:04.168Z,95922.03
2023-06-10T07:43:32.060Z,95919.66
2023-06-10T07:46:00.550Z,95917.72
2023-06-10T07:48:28.464Z,95923.22
2023-06-10T07:50:57.588Z,95919.66
2023-06-10T07:53:25.415Z,95926.38
2023-06-10T07:55:53.141Z,95924.44
2023-06-10T07:58:21.022Z,95927.97
2023-06-10T08:00:49.029Z,95925.59
2023-06-10T08:03:16.940Z,95923.22
2023-06-10T08:05:45.035Z,95918.91
2023-06-10T08:08:15.160Z,95921.66
2023-06-10T08:10:42.936Z,95921.63
2023-06-10T08:13:11.021Z,95923.22
2023-06-10T08:15:38.907Z,95914.91
2023-06-10T08:18:06.797Z,95922.38
2023-06-10T08:20:34.695Z,95921.91
2023-06-10T08:23:02.539Z,95910.88
2023-06-10T08:25:31.701Z,95912.81
2023-06-10T08:27:59.551Z,95917.88
2023-06-10T08:30:27.393Z,95928.06
2023-06-10T08:32:55.229Z,95923.28
2023-06-10T08:35:23.042Z,95915.66
2023-06-10T08:37:51.106Z,95922.72
2023-06-10T08:40:19.070Z,95916.72
2023-06-10T08:42:55.500Z,95922.19
2023-06-10T08:45:25.612Z,95915.03
2023-06-10T08:47:55.985Z,95913.28
2023-06-10T08:50:24.041Z,95915.63
2023-06-10T08:52:56.337Z,95913.91
2023-06-10T08:55:33.717Z,95915.50
2023-06-10T08:58:03.332Z,95909.84
2023-06-10T09:00:33.638Z,95918.25
2023-06-10T09:03:04.954Z,95914.00
2023-06-10T09:05:35.798Z,95913.53
2023-06-10T09:08:04.259Z,95915.34
2023-06-10T09:10:32.183Z,95914.03
2023-06-10T09:13:00.013Z,95917.75
2023-06-10T09:15:29.538Z,95920.13
2023-06-10T09:17:57.481Z,95924.13
2023-06-10T09:20:25.372Z,95919.72
2023-06-10T09:22:53.386Z,95920.22
2023-06-10T09:25:21.144Z,95913.34
2023-06-10T09:27:51.973Z,95913.91
2023-06-10T09:30:28.230Z,95920.47
2023-06-10T09:32:58.714Z,95920.56
2023-06-10T09:35:27.762Z,95925.41
2023-06-10T09:37:56.873Z,95927.72
2023-06-10T09:40:25.255Z,95925.84
2023-06-10T09:42:56.056Z,95923.94
2023-06-10T09:45:25.011Z,95933.97
2023-06-10T09:47:54.748Z,95933.09
2023-06-10T09:50:24.818Z,95929.28
2023-06-10T09:52:53.062Z,95927.09
2023-06-10T09:55:20.982Z,95922.31
2023-06-10T09:57:51.664Z,95924.94
2023-06-10T10:00:20.239Z,95919.34
2023-06-10T10:02:50.620Z,95916.91
2023-06-10T10:05:20.651Z,95915.00
2023-06-10T10:07:50.164Z,95924.72
2023-06-10T10:10:19.879Z,95926.97
2023-06-10T10:12:49.267Z,95916.94
2023-06-10T10:15:19.326Z,95913.09
2023-06-10T10:17:51.570Z,95923.00
2023-06-10T10:20:24.746Z,95914.22
2023-06-10T10:22:58.420Z,95916.72
2023-06-10T10:25:30.734Z,95925.41
2023-06-10T10:28:04.459Z,95928.00
2023-06-10T10:30:37.686Z,95926.66
2023-06-10T10:33:10.879Z,95911.91
2023-06-10T10:35:40.068Z,95913.00
2023-06-10T10:38:11.149Z,95917.56
2023-06-10T10:40:40.205Z,95925.09
2023-06-10T10:43:08.814Z,95922.63
2023-06-10T10:45:37.088Z,95922.25
2023-06-10T10:48:12.574Z,95927.34
2023-06-10T10:50:41.522Z,95922.47
2023-06-10T10:53:10.787Z,95920.78
2023-06-10T10:55:38.835Z,95923.41
2023-06-10T10:58:08.402Z,95918.28
2023-06-10T11:00:37.310Z,95917.75
2023-06-10T11:03:11.524Z,95911.72
2023-06-10T11:05:42.211Z,95910.34
2023-06-10T11:08:11.683Z,95908.56
2023-06-10T11:10:40.705Z,95899.16
2023-06-10T11:13:10.198Z,95907.38
2023-06-10T11:15:44.958Z,95905.34
2023-06-10T11:18:15.269Z,95899.56
2023-06-10T11:21:02.106Z,95906.75
2023-06-10T11:23:41.667Z,95899.44
2023-06-10T11:26:32.759Z,95901.88
2023-06-10T11:29:11.294Z,95903.44
2023-06-10T11:31:44.413Z,95898.59
2023-06-10T11:34:12.700Z,95890.78
2023-06-10T11:36:43.517Z,95896.28
2023-06-10T11:39:13.496Z,95892.50
2023-06-10T11:41:41.978Z,95901.47
2023-06-10T11:44:11.476Z,95905.59
2023-06-10T11:46:39.732Z,95889.19
2023-06-10T11:49:08.275Z,95896.16
2023-06-10T11:51:37.924Z,95897.22
2023-06-10T11:54:06.098Z,95896.16
2023-06-10T11:56:35.525Z,95893.16
2023-06-10T11:59:06.676Z,95895.91
2023-06-10T12:01:38.352Z,95893.56
2023-06-10T12:04:09.494Z,95898.66
2023-06-10T12:06:41.996Z,95890.53
2023-06-10T12:09:24.421Z,95899.53
2023-06-10T12:11:59.009Z,95895.53
2023-06-10T12:15:07.269Z,95895.44
2023-06-10T12:17:40.253Z,95896.44
2023-06-10T12:20:10.076Z,95902.81
2023-06-10T12:22:38.924Z,95902.13
2023-06-10T12:25:09.180Z,95890.00
2023-06-10T12:27:40.276Z,95891.19
2023-06-10T12:30:09.079Z,95883.53
2023-06-10T12:32:38.370Z,95889.31
2023-06-10T12:35:08.089Z,95895.00
2023-06-10T12:37:38.611Z,95893.44
2023-06-10T12:40:09.775Z,95889.09
2023-06-10T12:42:39.877Z,95892.72
2023-06-10T12:45:11.168Z,95886.19
2023-06-10T12:47:40.623Z,95881.50
2023-06-10T12:50:10.004Z,95882.25
2023-06-10T12:52:38.096Z,95889.13
2023-06-10T12:55:07.534Z,95882.91
2023-06-10T12:57:35.853Z,95877.50
2023-06-10T13:00:09.617Z,95889.72
2023-06-10T13:02:37.463Z,95876.34
2023-06-10T13:05:05.682Z,95870.59
2023-06-10T13:07:33.904Z,95875.34
2023-06-10T13:10:02.273Z,95871.88
2023-06-10T13:12:42.303Z,95882.22
2023-06-10T13:15:16.809Z,95877.88
2023-06-10T13:17:44.852Z,95877.09
2023-06-10T13:20:12.894Z,95873.53
2023-06-10T13:22:40.768Z,95870.59
2023-06-10T13:25:09.740Z,95867.53
2023-06-10T13:27:39.847Z,95863.53
2023-06-10T13:30:09.772Z,95857.69
2023-06-10T13:32:39.169Z,95862.19
2023-06-10T13:35:08.686Z,95860.28
2023-06-10T13:37:37.368Z,95868.25
2023-06-10T13:40:06.349Z,95858.72
2023-06-10T13:42:34.661Z,95863.59
2023-06-10T13:45:02.411Z,95865.78
2023-06-10T13:47:35.109Z,95864.22
2023-06-10T13:50:04.478Z,95852.34
2023-06-10T13:52:32.313Z,95857.75
2023-06-10T13:55:00.080Z,95851.84
2023-06-10T13:57:27.918Z,95858.00
2023-06-10T13:59:57.116Z,95848.44
2023-06-10T14:02:25.035Z,95850.81
2023-06-10T14:04:53.237Z,95853.28
2023-06-10T14:07:22.420Z,95849.47
2023-06-10T14:09:52.590Z,95847.97
2023-06-10T14:12:20.454Z,95840.59
2023-06-10T14:14:48.509Z,95841.84
2023-06-10T14:17:16.470Z,95842.16
2023-06-10T14:19:44.451Z,95842.78
2023-06-10T14:22:12.253Z,95844.44
2023-06-10T14:24:41.437Z,95853.66
2023-06-10T14:27:09.354Z,95848.69
2023-06-10T14:29:37.161Z,95845.63
2023-06-10T14:32:09.130Z,95840.53
2023-06-10T14:34:37.569Z,95845.16
2023-06-10T14:37:08.413Z,95844.41
2023-06-10T14:39:36.385Z,95845.47
2023-06-10T14:42:06.800Z,95842.91
2023-06-10T14:44:34.783Z,95845.22
2023-06-10T14:47:02.754Z,95834.72
2023-06-10T14:49:30.656Z,95837.53
2023-06-10T14:51:58.434Z,95830.75
2023-06-10T14:54:26.244Z,95839.94
2023-06-10T14:56:56.667Z,95845.06
2023-06-10T14:59:25.796Z,95832.28
2023-06-10T15:01:54.348Z,95833.34
2023-06-10T15:04:24.484Z,95832.59
2023-06-10T15:06:52.930Z,95832.41
2023-06-10T15:09:21.019Z,95828.91
2023-06-10T15:11:49.352Z,95825.03
2023-06-10T15:14:17.214Z,95823.66
2023-06-10T15:16:46.422Z,95825.50
2023-06-10T15:19:14.300Z,95830.44
2023-06-10T15:21:42.167Z,95826.25
2023-06-10T15:24:10.622Z,95820.81
2023-06-10T15:26:38.675Z,95829.19
2023-06-10T15:29:07.283Z,95827.22
2023-06-10T15:31:35.465Z,95822.72
2023-06-10T15:34:05.816Z,95822.44
2023-06-10T15:36:33.640Z,95825.03
2023-06-10T15:39:04.060Z,95817.63
2023-06-10T15:41:31.843Z,95822.84
2023-06-10T15:44:00.784Z,95821.75
2023-06-10T15:46:29.289Z,95818.88
2023-06-10T15:48:57.254Z,95817.44
2023-06-10T15:51:26.537Z,95819.13
2023-06-10T15:53:54.391Z,95814.66
2023-06-10T15:56:23.674Z,95815.13
2023-06-10T15:58:51.578Z,95809.66
2023-06-10T16:01:19.485Z,95812.44
2023-06-10T16:03:47.382Z,95820.22
2023-06-10T16:06:16.495Z,95808.41
2023-06-10T16:08:46.508Z,95814.00
2023-06-10T16:11:14.347Z,95813.16
2023-06-10T16:13:42.479Z,95815.75
2023-06-10T16:16:10.322Z,95819.41
2023-06-10T16:18:38.173Z,95816.63
2023-06-10T16:21:06.522Z,95816.31
2023-06-10T16:23:34.446Z,95821.16
2023-06-10T16:26:04.188Z,95820.66
2023-06-10T16:28:32.163Z,95826.88
2023-06-10T16:31:00.032Z,95815.34
2023-06-10T16:33:27.909Z,95817.66
2023-06-10T16:35:55.759Z,95814.41
2023-06-10T16:38:24.116Z,95812.69
2023-06-10T16:40:51.994Z,95813.41
2023-06-10T16:43:21.293Z,95813.88
2023-06-10T16:45:49.161Z,95828.78
2023-06-10T16:48:16.919Z,95820.91
2023-06-10T16:50:44.704Z,95819.00
2023-06-10T16:53:12.515Z,95827.31
2023-06-10T16:55:42.354Z,95838.25
2023-06-10T16:58:10.147Z,95826.13
2023-06-10T17:00:39.524Z,95827.09
2023-06-10T17:03:09.142Z,95831.47
2023-06-10T17:05:37.151Z,95848.09
2023-06-10T17:08:05.365Z,95848.28
2023-06-10T17:10:33.195Z,95849.44
2023-06-10T17:13:01.005Z,95859.94
2023-06-10T17:15:29.036Z,95866.91
2023-06-10T17:17:59.347Z,95850.81
2023-06-10T17:20:28.034Z,95871.06
2023-06-10T17:22:56.119Z,95854.69
2023-06-10T17:25:24.597Z,95873.03
2023-06-10T17:27:52.481Z,95874.19
2023-06-10T17:30:20.358Z,95861.00
2023-06-10T17:32:48.234Z,95869.06
2023-06-10T17:35:17.536Z,95873.38
2023-06-10T17:37:45.334Z,95881.19
2023-06-10T17:40:14.499Z,95876.03
2023-06-10T17:42:42.365Z,95877.38
2023-06-10T17:45:11.202Z,95878.03
2023-06-10T17:47:39.452Z,95882.34
2023-06-10T17:50:08.175Z,95872.47
2023-06-10T17:52:37.406Z,95876.50
2023-06-10T17:55:05.800Z,95878.72
2023-06-10T17:57:33.806Z,95884.47
2023-06-10T18:00:01.672Z,95876.50
2023-06-10T18:02:29.555Z,95877.53
2023-06-10T18:04:57.345Z,95878.00
2023-06-10T18:07:25.204Z,95884.75
2023-06-10T18:09:54.433Z,95883.91
2023-06-10T18:12:22.377Z,95879.38
2023-06-10T18:14:50.375Z,95884.75
2023-06-10T18:17:18.162Z,95883.84
2023-06-10T18:19:46.059Z,95878.03
2023-06-10T18:22:14.104Z,95885.28
2023-06-10T18:24:42.013Z,95890.56
2023-06-10T18:27:13.380Z,95889.00
2023-06-10T18:29:42.658Z,95897.31
2023-06-10T18:32:11.331Z,95896.75
2023-06-10T18:34:39.329Z,95899.13
2023-06-10T18:37:25.794Z,95897.56
2023-06-10T18:39:57.142Z,95903.16
2023-06-10T18:42:26.701Z,95904.06
2023-06-10T18:44:54.471Z,95909.34
2023-06-10T18:47:22.381Z,95907.44
2023-06-10T18:49:50.312Z,95913.38
2023-06-10T18:52:18.128Z,95914.25
2023-06-10T18:54:45.920Z,95914.72
2023-06-10T18:57:14.447Z,95919.09
2023-06-10T18:59:44.218Z,95920.31
2023-06-10T19:02:12.490Z,95912.50
2023-06-10T19:04:40.710Z,95920.88
2023-06-10T19:07:08.517Z,95921.31
2023-06-10T19:09:36.264Z,95928.44
2023-06-10T19:12:04.298Z,95932.81
2023-06-10T19:14:32.171Z,95933.22
2023-06-10T19:17:01.332Z,95938.41
2023-06-10T19:19:29.240Z,95940.38
2023-06-10T19:21:58.419Z,95937.25
2023-06-10T19:24:26.395Z,95940.78
2023-06-10T19:26:54.447Z,95944.34
2023-06-10T19:29:22.342Z,95943.19
2023-06-10T19:31:50.442Z,95937.69
2023-06-10T19:34:22.558Z,95944.78
2023-06-10T19:36:50.478Z,95948.75
2023-06-10T19:39:18.539Z,95944.06
2023-06-10T19:41:46.502Z,95949.16
2023-06-10T19:44:14.393Z,95946.81
2023-06-10T19:46:42.324Z,95955.84
2023-06-10T19:49:10.290Z,95957.81
2023-06-10T19:51:39.430Z,95957.06
2023-06-10T19:54:07.248Z,95953.50
2023-06-10T19:56:35.085Z,95953.91
2023-06-10T19:59:03.063Z,95953.16
2023-06-10T20:01:31.124Z,95961.78
2023-06-10T20:03:59.126Z,95954.31
2023-06-10T20:06:27.062Z,95960.56
2023-06-10T20:08:56.389Z,95962.09
2023-06-10T20:11:24.308Z,95965.25
2023-06-10T20:13:52.172Z,95977.41
2023-06-10T20:16:20.086Z,95977.81
2023-06-10T20:18:51.746Z,95986.03
2023-06-10T20:21:20.788Z,95994.69
2023-06-10T20:23:50.648Z,95994.25
2023-06-10T20:26:20.070Z,96004.47
2023-06-10T20:28:48.554Z,96004.03
2023-06-10T20:31:16.433Z,96003.66
2023-06-10T20:33:44.325Z,96006.75
2023-06-10T20:36:12.150Z,96002.03
2023-06-10T20:38:39.953Z,96010.66
2023-06-10T20:41:07.821Z,96013.78
2023-06-10T20:43:37.005Z,96013.38
2023-06-10T20:46:06.253Z,96025.56
2023-06-10T20:48:34.210Z,96030.25
2023-06-10T20:51:01.973Z,96021.59
2023-06-10T20:53:30.007Z,96027.44
2023-06-10T20:55:59.284Z,96035.69
2023-06-10T20:58:27.220Z,96027.81
2023-06-10T21:00:56.500Z,96029.78
2023-06-10T21:03:24.822Z,96025.84
2023-06-10T21:05:52.727Z,96026.19
2023-06-10T21:08:20.767Z,96027.34
2023-06-10T21:10:48.544Z,96019.81
2023-06-10T21:13:16.546Z,96023.34
2023-06-10T21:15:45.131Z,96027.25
2023-06-10T21:18:14.504Z,96029.59
2023-06-10T21:20:43.251Z,96033.09
2023-06-10T21:23:11.497Z,96033.88
2023-06-10T21:25:39.430Z,96027.16
2023-06-10T21:28:07.298Z,96033.81
2023-06-10T21:30:35.019Z,96034.19
2023-06-10T21:33:02.829Z,96026.69
2023-06-10T21:35:32.252Z,96037.69
2023-06-10T21:38:00.064Z,96034.91
2023-06-10T21:40:28.169Z,96037.63
2023-06-10T21:42:55.935Z,96035.25
2023-06-10T21:45:23.771Z,96038.38
2023-06-10T21:47:51.601Z,96033.66
2023-06-10T21:50:19.409Z,96037.56
2023-06-10T21:52:48.570Z,96040.66
2023-06-10T21:55:16.698Z,96035.13
2023-06-10T21:57:44.472Z,96047.69
2023-06-10T22:00:14.398Z,96051.13
2023-06-10T22:02:43.101Z,96052.25
2023-06-10T22:05:11.140Z,96046.78
2023-06-10T22:07:39.281Z,96043.16
2023-06-10T22:10:08.981Z,96048.63
2023-06-10T22:12:36.826Z,96046.22
2023-06-10T22:15:05.393Z,96050.09
2023-06-10T22:17:33.223Z,96048.09
2023-06-10T22:20:01.176Z,96038.25
2023-06-10T22:22:28.946Z,96035.84
2023-06-10T22:24:57.270Z,96035.44
2023-06-10T22:27:26.661Z,96036.97
2023-06-10T22:29:54.505Z,96031.84
2023-06-10T22:32:22.391Z,96033.38
2023-06-10T22:34:50.263Z,96038.41
2023-06-10T22:37:18.173Z,96039.94
2023-06-10T22:39:45.976Z,96035.94
2023-06-10T22:42:13.872Z,96031.22
2023-06-10T22:44:43.981Z,96029.97
2023-06-10T22:47:13.150Z,96026.41
2023-06-10T22:49:41.691Z,96033.00
2023-06-10T22:52:09.884Z,96023.19
2023-06-10T22:54:38.325Z,96020.78
2023-06-10T22:57:06.597Z,96030.19
2023-06-10T22:59:34.391Z,96031.72
2023-06-10T23:02:03.652Z,96034.75
2023-06-10T23:04:31.575Z,96038.63
2023-06-10T23:06:59.361Z,96033.97
2023-06-10T23:09:27.167Z,96034.66
2023-06-10T23:11:55.000Z,96038.13
2023-06-10T23:14:23.243Z,96038.50
2023-06-10T23:16:52.499Z,96050.19
2023-06-10T23:19:22.746Z,96050.19
2023-06-10T23:21:54.403Z,96052.44
2023-06-10T23:24:30.433Z,96057.13
2023-06-10T23:27:00.191Z,96057.91
2023-06-10T23:29:28.605Z,96056.28
2023-06-10T23:31:57.220Z,96056.28
2023-06-10T23:34:26.484Z,96057.03
2023-06-10T23:36:54.894Z,96056.97
2023-06-10T23:39:23.430Z,96059.66
2023-06-10T23:41:51.467Z,96058.88
2023-06-10T23:44:19.309Z,96059.25
2023-06-10T23:46:47.108Z,96056.84
2023-06-10T23:49:14.949Z,96054.09
2023-06-10T23:51:44.052Z,96057.56
2023-06-10T23:54:13.678Z,96068.38
2023-06-10T23:56:41.618Z,96061.34
2023-06-10T23:59:09.521Z,96061.72
